sensor_id;sensor_type;location;lat;lon;timestamp;temperature;humidity
15717;DHT22;7960;50.908;4.204;2023-05-14T00:02:03;14.10;99.90
15717;DHT22;7960;50.908;4.204;2023-05-14T00:04:30;14.10;99.90
15717;DHT22;7960;50.908;4.204;2023-05-14T00:06:57;14.20;99.90
15717;DHT22;7960;50.908;4.204;2023-05-14T00:09:25;14.10;99.90
15717;DHT22;7960;50.908;4.204;2023-05-14T00:11:53;14.10;99.90
15717;DHT22;7960;50.908;4.204;2023-05-14T00:14:20;14.00;99.90
15717;DHT22;7960;50.908;4.204;2023-05-14T00:16:48;14.00;99.90
15717;DHT22;7960;50.908;4.204;2023-05-14T00:19:15;14.10;99.90
15717;DHT22;7960;50.908;4.204;2023-05-14T00:21:42;14.00;99.90
15717;DHT22;7960;50.908;4.204;2023-05-14T00:24:09;13.90;99.90
15717;DHT22;7960;50.908;4.204;2023-05-14T00:26:37;14.00;99.90
15717;DHT22;7960;50.908;4.204;2023-05-14T00:29:04;13.90;99.90
15717;DHT22;7960;50.908;4.204;2023-05-14T00:31:31;13.80;99.90
15717;DHT22;7960;50.908;4.204;2023-05-14T00:33:58;13.80;99.90
15717;DHT22;7960;50.908;4.204;2023-05-14T00:36:25;13.80;99.90
15717;DHT22;7960;50.908;4.204;2023-05-14T00:38:52;13.70;99.90
15717;DHT22;7960;50.908;4.204;2023-05-14T00:41:19;13.80;99.90
15717;DHT22;7960;50.908;4.204;2023-05-14T00:43:47;13.80;99.90
15717;DHT22;7960;50.908;4.204;2023-05-14T00:46:14;13.80;99.90
15717;DHT22;7960;50.908;4.204;2023-05-14T00:48:42;13.70;99.90
15717;DHT22;7960;50.908;4.204;2023-05-14T00:51:09;13.60;99.90
15717;DHT22;7960;50.908;4.204;2023-05-14T00:53:36;13.60;99.90
15717;DHT22;7960;50.908;4.204;2023-05-14T00:56:04;13.60;99.90
15717;DHT22;7960;50.908;4.204;2023-05-14T00:58:31;13.40;99.90
15717;DHT22;7960;50.908;4.204;2023-05-14T01:00:59;13.60;99.90
15717;DHT22;7960;50.908;4.204;2023-05-14T01:03:26;13.30;99.90
15717;DHT22;7960;50.908;4.204;2023-05-14T01:06:00;13.10;99.90
15717;DHT22;7960;50.908;4.204;2023-05-14T01:08:38;13.40;99.90
15717;DHT22;7960;50.908;4.204;2023-05-14T01:11:10;13.30;99.90
15717;DHT22;7960;50.908;4.204;2023-05-14T01:13:45;13.20;99.90
15717;DHT22;7960;50.908;4.204;2023-05-14T01:16:17;13.20;99.90
15717;DHT22;7960;50.908;4.204;2023-05-14T01:18:45;13.50;99.90
15717;DHT22;7960;50.908;4.204;2023-05-14T01:21:33;13.50;99.90
15717;DHT22;7960;50.908;4.204;2023-05-14T01:24:02;13.50;99.90
15717;DHT22;7960;50.908;4.204;2023-05-14T01:26:29;13.70;99.90
15717;DHT22;7960;50.908;4.204;2023-05-14T01:29:00;13.70;99.90
15717;DHT22;7960;50.908;4.204;2023-05-14T01:31:30;13.70;99.90
15717;DHT22;7960;50.908;4.204;2023-05-14T01:33:57;13.60;99.90
15717;DHT22;7960;50.908;4.204;2023-05-14T01:36:27;13.50;99.90
15717;DHT22;7960;50.908;4.204;2023-05-14T01:38:56;13.60;99.90
15717;DHT22;7960;50.908;4.204;2023-05-14T01:41:24;13.40;99.90
15717;DHT22;7960;50.908;4.204;2023-05-14T01:43:51;13.60;99.90
15717;DHT22;7960;50.908;4.204;2023-05-14T01:46:18;13.60;99.90
15717;DHT22;7960;50.908;4.204;2023-05-14T01:48:46;13.60;99.90
15717;DHT22;7960;50.908;4.204;2023-05-14T01:51:13;13.60;99.90
15717;DHT22;7960;50.908;4.204;2023-05-14T01:53:41;13.60;99.90
15717;DHT22;7960;50.908;4.204;2023-05-14T01:56:08;13.50;99.90
15717;DHT22;7960;50.908;4.204;2023-05-14T01:58:35;13.50;99.90
15717;DHT22;7960;50.908;4.204;2023-05-14T02:01:02;13.40;99.90
15717;DHT22;7960;50.908;4.204;2023-05-14T02:03:29;13.60;99.90
15717;DHT22;7960;50.908;4.204;2023-05-14T02:05:56;13.60;99.90
15717;DHT22;7960;50.908;4.204;2023-05-14T02:08:22;13.60;99.90
15717;DHT22;7960;50.908;4.204;2023-05-14T02:10:51;13.60;99.90
15717;DHT22;7960;50.908;4.204;2023-05-14T02:13:18;13.60;99.90
15717;DHT22;7960;50.908;4.204;2023-05-14T02:15:45;13.50;99.90
15717;DHT22;7960;50.908;4.204;2023-05-14T02:18:12;13.30;99.90
15717;DHT22;7960;50.908;4.204;2023-05-14T02:20:39;12.90;99.90
15717;DHT22;7960;50.908;4.204;2023-05-14T02:23:06;13.20;99.90
15717;DHT22;7960;50.908;4.204;2023-05-14T02:25:33;13.30;99.90
15717;DHT22;7960;50.908;4.204;2023-05-14T02:28:01;13.40;99.90
15717;DHT22;7960;50.908;4.204;2023-05-14T02:30:28;13.50;99.90
15717;DHT22;7960;50.908;4.204;2023-05-14T02:32:56;13.50;99.90
15717;DHT22;7960;50.908;4.204;2023-05-14T02:35:23;13.60;99.90
15717;DHT22;7960;50.908;4.204;2023-05-14T02:37:50;13.50;99.90
15717;DHT22;7960;50.908;4.204;2023-05-14T02:40:17;13.70;99.90
15717;DHT22;7960;50.908;4.204;2023-05-14T02:42:44;13.40;99.90
15717;DHT22;7960;50.908;4.204;2023-05-14T02:45:12;13.30;99.90
15717;DHT22;7960;50.908;4.204;2023-05-14T02:47:39;13.30;99.90
15717;DHT22;7960;50.908;4.204;2023-05-14T02:50:07;13.40;99.90
15717;DHT22;7960;50.908;4.204;2023-05-14T02:52:35;13.50;99.90
15717;DHT22;7960;50.908;4.204;2023-05-14T02:55:03;13.40;99.90
15717;DHT22;7960;50.908;4.204;2023-05-14T02:57:30;13.50;99.90
15717;DHT22;7960;50.908;4.204;2023-05-14T02:59:57;13.50;99.90
15717;DHT22;7960;50.908;4.204;2023-05-14T03:02:25;13.50;99.90
15717;DHT22;7960;50.908;4.204;2023-05-14T03:04:52;13.60;99.90
15717;DHT22;7960;50.908;4.204;2023-05-14T03:07:19;13.50;99.90
15717;DHT22;7960;50.908;4.204;2023-05-14T03:09:46;13.50;99.90
15717;DHT22;7960;50.908;4.204;2023-05-14T03:12:13;13.50;99.90
15717;DHT22;7960;50.908;4.204;2023-05-14T03:14:40;13.60;99.90
15717;DHT22;7960;50.908;4.204;2023-05-14T03:17:06;13.60;99.90
15717;DHT22;7960;50.908;4.204;2023-05-14T03:19:35;13.60;99.90
15717;DHT22;7960;50.908;4.204;2023-05-14T03:22:02;13.60;99.90
15717;DHT22;7960;50.908;4.204;2023-05-14T03:24:30;13.40;99.90
15717;DHT22;7960;50.908;4.204;2023-05-14T03:26:57;13.50;99.90
15717;DHT22;7960;50.908;4.204;2023-05-14T03:29:24;13.60;99.90
15717;DHT22;7960;50.908;4.204;2023-05-14T03:31:50;13.30;99.90
15717;DHT22;7960;50.908;4.204;2023-05-14T03:34:18;13.40;99.90
15717;DHT22;7960;50.908;4.204;2023-05-14T03:36:47;13.50;99.90
15717;DHT22;7960;50.908;4.204;2023-05-14T03:39:14;13.60;99.90
15717;DHT22;7960;50.908;4.204;2023-05-14T03:41:44;13.70;99.90
15717;DHT22;7960;50.908;4.204;2023-05-14T03:44:11;13.50;99.90
15717;DHT22;7960;50.908;4.204;2023-05-14T03:46:38;13.50;99.90
15717;DHT22;7960;50.908;4.204;2023-05-14T03:49:05;13.20;99.90
15717;DHT22;7960;50.908;4.204;2023-05-14T03:51:32;13.30;99.90
15717;DHT22;7960;50.908;4.204;2023-05-14T03:54:03;13.10;99.90
15717;DHT22;7960;50.908;4.204;2023-05-14T03:56:30;13.30;99.90
15717;DHT22;7960;50.908;4.204;2023-05-14T03:58:57;13.40;99.90
15717;DHT22;7960;50.908;4.204;2023-05-14T04:01:24;13.30;99.90
15717;DHT22;7960;50.908;4.204;2023-05-14T04:03:51;13.30;99.90
15717;DHT22;7960;50.908;4.204;2023-05-14T04:06:18;13.40;99.90
15717;DHT22;7960;50.908;4.204;2023-05-14T04:08:45;13.40;99.90
15717;DHT22;7960;50.908;4.204;2023-05-14T04:11:13;13.40;99.90
15717;DHT22;7960;50.908;4.204;2023-05-14T04:13:40;13.40;99.90
15717;DHT22;7960;50.908;4.204;2023-05-14T04:16:07;13.20;99.90
15717;DHT22;7960;50.908;4.204;2023-05-14T04:18:34;13.30;99.90
15717;DHT22;7960;50.908;4.204;2023-05-14T04:21:01;13.00;99.90
15717;DHT22;7960;50.908;4.204;2023-05-14T04:23:28;12.90;99.90
15717;DHT22;7960;50.908;4.204;2023-05-14T04:25:56;13.00;99.90
15717;DHT22;7960;50.908;4.204;2023-05-14T04:28:24;13.10;99.90
15717;DHT22;7960;50.908;4.204;2023-05-14T04:30:52;13.10;99.90
15717;DHT22;7960;50.908;4.204;2023-05-14T04:33:19;13.00;99.90
15717;DHT22;7960;50.908;4.204;2023-05-14T04:35:46;13.20;99.90
15717;DHT22;7960;50.908;4.204;2023-05-14T04:38:13;13.30;99.90
15717;DHT22;7960;50.908;4.204;2023-05-14T04:40:40;13.40;99.90
15717;DHT22;7960;50.908;4.204;2023-05-14T04:43:07;13.50;99.90
15717;DHT22;7960;50.908;4.204;2023-05-14T04:45:36;13.60;99.90
15717;DHT22;7960;50.908;4.204;2023-05-14T04:48:03;13.60;99.90
15717;DHT22;7960;50.908;4.204;2023-05-14T04:50:32;13.50;99.90
15717;DHT22;7960;50.908;4.204;2023-05-14T04:52:59;13.40;99.90
15717;DHT22;7960;50.908;4.204;2023-05-14T04:55:26;13.30;99.90
15717;DHT22;7960;50.908;4.204;2023-05-14T04:57:53;13.50;99.90
15717;DHT22;7960;50.908;4.204;2023-05-14T05:00:20;13.50;99.90
15717;DHT22;7960;50.908;4.204;2023-05-14T05:02:49;13.50;99.90
15717;DHT22;7960;50.908;4.204;2023-05-14T05:05:16;13.50;99.90
15717;DHT22;7960;50.908;4.204;2023-05-14T05:07:43;13.50;99.90
15717;DHT22;7960;50.908;4.204;2023-05-14T05:10:10;13.40;99.90
15717;DHT22;7960;50.908;4.204;2023-05-14T05:12:37;13.60;99.90
15717;DHT22;7960;50.908;4.204;2023-05-14T05:15:05;13.50;99.90
15717;DHT22;7960;50.908;4.204;2023-05-14T05:17:32;13.60;99.90
15717;DHT22;7960;50.908;4.204;2023-05-14T05:20:00;13.60;99.90
15717;DHT22;7960;50.908;4.204;2023-05-14T05:22:27;13.60;99.90
15717;DHT22;7960;50.908;4.204;2023-05-14T05:24:54;13.50;99.90
15717;DHT22;7960;50.908;4.204;2023-05-14T05:27:21;13.30;99.90
15717;DHT22;7960;50.908;4.204;2023-05-14T05:29:48;13.40;99.90
15717;DHT22;7960;50.908;4.204;2023-05-14T05:32:15;13.40;99.90
15717;DHT22;7960;50.908;4.204;2023-05-14T05:34:42;13.30;99.90
15717;DHT22;7960;50.908;4.204;2023-05-14T05:37:10;13.20;99.90
15717;DHT22;7960;50.908;4.204;2023-05-14T05:39:39;13.30;99.90
15717;DHT22;7960;50.908;4.204;2023-05-14T05:42:07;13.20;99.90
15717;DHT22;7960;50.908;4.204;2023-05-14T05:44:35;13.00;99.90
15717;DHT22;7960;50.908;4.204;2023-05-14T05:47:01;13.00;99.90
15717;DHT22;7960;50.908;4.204;2023-05-14T05:49:28;12.90;99.90
15717;DHT22;7960;50.908;4.204;2023-05-14T05:52:14;12.90;99.90
15717;DHT22;7960;50.908;4.204;2023-05-14T05:54:42;13.00;99.90
15717;DHT22;7960;50.908;4.204;2023-05-14T05:57:11;13.10;99.90
15717;DHT22;7960;50.908;4.204;2023-05-14T05:59:38;13.20;99.90
15717;DHT22;7960;50.908;4.204;2023-05-14T06:02:05;13.30;99.90
15717;DHT22;7960;50.908;4.204;2023-05-14T06:04:32;13.10;99.90
15717;DHT22;7960;50.908;4.204;2023-05-14T06:06:59;12.90;99.90
15717;DHT22;7960;50.908;4.204;2023-05-14T06:09:26;12.90;99.90
15717;DHT22;7960;50.908;4.204;2023-05-14T06:11:54;13.10;99.90
15717;DHT22;7960;50.908;4.204;2023-05-14T06:14:21;13.20;99.90
15717;DHT22;7960;50.908;4.204;2023-05-14T06:16:48;13.00;99.90
15717;DHT22;7960;50.908;4.204;2023-05-14T06:19:15;13.00;99.90
15717;DHT22;7960;50.908;4.204;2023-05-14T06:21:42;13.10;99.90
15717;DHT22;7960;50.908;4.204;2023-05-14T06:24:09;13.10;99.90
15717;DHT22;7960;50.908;4.204;2023-05-14T06:26:37;13.30;99.90
15717;DHT22;7960;50.908;4.204;2023-05-14T06:29:06;13.40;99.90
15717;DHT22;7960;50.908;4.204;2023-05-14T06:31:33;13.40;99.90
15717;DHT22;7960;50.908;4.204;2023-05-14T06:33:59;13.40;99.90
15717;DHT22;7960;50.908;4.204;2023-05-14T06:36:26;13.40;99.90
15717;DHT22;7960;50.908;4.204;2023-05-14T06:38:53;13.20;99.90
15717;DHT22;7960;50.908;4.204;2023-05-14T06:41:20;13.30;99.90
15717;DHT22;7960;50.908;4.204;2023-05-14T06:43:47;13.50;99.90
15717;DHT22;7960;50.908;4.204;2023-05-14T06:46:15;13.50;99.90
15717;DHT22;7960;50.908;4.204;2023-05-14T06:48:42;13.30;99.90
15717;DHT22;7960;50.908;4.204;2023-05-14T06:51:09;13.50;99.90
15717;DHT22;7960;50.908;4.204;2023-05-14T06:53:37;13.60;99.90
15717;DHT22;7960;50.908;4.204;2023-05-14T06:56:04;13.70;99.90
15717;DHT22;7960;50.908;4.204;2023-05-14T06:58:32;13.70;99.90
15717;DHT22;7960;50.908;4.204;2023-05-14T07:00:59;13.70;99.90
15717;DHT22;7960;50.908;4.204;2023-05-14T07:03:27;13.80;99.90
15717;DHT22;7960;50.908;4.204;2023-05-14T07:05:54;13.90;99.90
15717;DHT22;7960;50.908;4.204;2023-05-14T07:08:21;13.80;99.90
15717;DHT22;7960;50.908;4.204;2023-05-14T07:10:48;13.80;99.90
15717;DHT22;7960;50.908;4.204;2023-05-14T07:13:15;13.70;99.90
15717;DHT22;7960;50.908;4.204;2023-05-14T07:15:42;13.60;99.90
15717;DHT22;7960;50.908;4.204;2023-05-14T07:18:09;13.60;99.90
15717;DHT22;7960;50.908;4.204;2023-05-14T07:20:37;13.40;99.90
15717;DHT22;7960;50.908;4.204;2023-05-14T07:23:04;13.60;99.90
15717;DHT22;7960;50.908;4.204;2023-05-14T07:25:31;13.70;99.90
15717;DHT22;7960;50.908;4.204;2023-05-14T07:27:58;13.70;99.90
15717;DHT22;7960;50.908;4.204;2023-05-14T07:30:25;13.90;99.90
15717;DHT22;7960;50.908;4.204;2023-05-14T07:32:52;13.80;99.90
15717;DHT22;7960;50.908;4.204;2023-05-14T07:35:19;13.90;99.90
15717;DHT22;7960;50.908;4.204;2023-05-14T07:37:47;13.80;99.90
15717;DHT22;7960;50.908;4.204;2023-05-14T07:40:14;13.90;99.90
15717;DHT22;7960;50.908;4.204;2023-05-14T07:42:41;13.80;99.90
15717;DHT22;7960;50.908;4.204;2023-05-14T07:45:09;13.90;99.90
15717;DHT22;7960;50.908;4.204;2023-05-14T07:47:36;13.90;99.90
15717;DHT22;7960;50.908;4.204;2023-05-14T07:50:12;13.80;99.90
15717;DHT22;7960;50.908;4.204;2023-05-14T07:52:39;13.90;99.90
15717;DHT22;7960;50.908;4.204;2023-05-14T07:55:09;14.00;99.90
15717;DHT22;7960;50.908;4.204;2023-05-14T07:57:38;13.90;99.90
15717;DHT22;7960;50.908;4.204;2023-05-14T08:00:06;14.10;99.90
15717;DHT22;7960;50.908;4.204;2023-05-14T08:02:33;14.10;99.90
15717;DHT22;7960;50.908;4.204;2023-05-14T08:05:00;14.10;99.90
15717;DHT22;7960;50.908;4.204;2023-05-14T08:07:28;13.90;99.90
15717;DHT22;7960;50.908;4.204;2023-05-14T08:09:55;14.00;99.90
15717;DHT22;7960;50.908;4.204;2023-05-14T08:12:24;13.80;99.90
15717;DHT22;7960;50.908;4.204;2023-05-14T08:14:51;13.90;99.90
15717;DHT22;7960;50.908;4.204;2023-05-14T08:17:18;13.90;99.90
15717;DHT22;7960;50.908;4.204;2023-05-14T08:19:49;14.10;99.90
15717;DHT22;7960;50.908;4.204;2023-05-14T08:22:17;14.20;99.90
15717;DHT22;7960;50.908;4.204;2023-05-14T08:24:43;14.50;99.90
15717;DHT22;7960;50.908;4.204;2023-05-14T08:27:10;14.70;99.90
15717;DHT22;7960;50.908;4.204;2023-05-14T08:29:39;14.70;99.90
15717;DHT22;7960;50.908;4.204;2023-05-14T08:32:07;14.60;99.90
15717;DHT22;7960;50.908;4.204;2023-05-14T08:34:34;14.60;99.90
15717;DHT22;7960;50.908;4.204;2023-05-14T08:37:01;14.70;99.90
15717;DHT22;7960;50.908;4.204;2023-05-14T08:39:28;14.90;99.90
15717;DHT22;7960;50.908;4.204;2023-05-14T08:41:56;14.80;99.90
15717;DHT22;7960;50.908;4.204;2023-05-14T08:44:31;14.80;99.90
15717;DHT22;7960;50.908;4.204;2023-05-14T08:47:02;14.80;99.90
15717;DHT22;7960;50.908;4.204;2023-05-14T08:49:36;14.80;99.90
15717;DHT22;7960;50.908;4.204;2023-05-14T08:52:06;14.80;99.90
15717;DHT22;7960;50.908;4.204;2023-05-14T08:54:34;14.90;99.90
15717;DHT22;7960;50.908;4.204;2023-05-14T08:57:02;15.00;99.90
15717;DHT22;7960;50.908;4.204;2023-05-14T08:59:29;15.10;99.90
15717;DHT22;7960;50.908;4.204;2023-05-14T09:02:00;15.10;99.90
15717;DHT22;7960;50.908;4.204;2023-05-14T09:04:29;15.20;99.90
15717;DHT22;7960;50.908;4.204;2023-05-14T09:06:58;15.40;99.90
15717;DHT22;7960;50.908;4.204;2023-05-14T09:09:26;15.30;99.90
15717;DHT22;7960;50.908;4.204;2023-05-14T09:11:54;15.30;99.90
15717;DHT22;7960;50.908;4.204;2023-05-14T09:14:21;15.30;99.90
15717;DHT22;7960;50.908;4.204;2023-05-14T09:16:50;15.30;99.90
15717;DHT22;7960;50.908;4.204;2023-05-14T09:19:17;15.40;99.90
15717;DHT22;7960;50.908;4.204;2023-05-14T09:21:47;15.40;99.90
15717;DHT22;7960;50.908;4.204;2023-05-14T09:24:18;15.40;99.90
15717;DHT22;7960;50.908;4.204;2023-05-14T09:26:49;15.40;99.90
15717;DHT22;7960;50.908;4.204;2023-05-14T09:29:16;15.50;99.90
15717;DHT22;7960;50.908;4.204;2023-05-14T09:31:43;15.60;99.90
15717;DHT22;7960;50.908;4.204;2023-05-14T09:34:10;15.70;99.90
15717;DHT22;7960;50.908;4.204;2023-05-14T09:36:37;15.60;99.90
15717;DHT22;7960;50.908;4.204;2023-05-14T09:39:06;15.60;99.90
15717;DHT22;7960;50.908;4.204;2023-05-14T09:41:33;15.70;99.90
15717;DHT22;7960;50.908;4.204;2023-05-14T09:44:01;15.80;99.90
15717;DHT22;7960;50.908;4.204;2023-05-14T09:46:28;15.50;99.90
15717;DHT22;7960;50.908;4.204;2023-05-14T09:48:56;15.70;99.90
15717;DHT22;7960;50.908;4.204;2023-05-14T09:51:23;15.80;99.90
15717;DHT22;7960;50.908;4.204;2023-05-14T09:53:51;15.70;99.90
15717;DHT22;7960;50.908;4.204;2023-05-14T09:56:20;15.90;99.90
15717;DHT22;7960;50.908;4.204;2023-05-14T09:58:47;15.90;99.90
15717;DHT22;7960;50.908;4.204;2023-05-14T10:01:17;15.80;99.90
15717;DHT22;7960;50.908;4.204;2023-05-14T10:03:44;15.90;99.90
15717;DHT22;7960;50.908;4.204;2023-05-14T10:06:12;15.80;99.90
15717;DHT22;7960;50.908;4.204;2023-05-14T10:08:43;15.80;99.90
15717;DHT22;7960;50.908;4.204;2023-05-14T10:11:12;15.80;99.90
15717;DHT22;7960;50.908;4.204;2023-05-14T10:13:47;15.90;99.90
15717;DHT22;7960;50.908;4.204;2023-05-14T10:16:23;16.00;99.90
15717;DHT22;7960;50.908;4.204;2023-05-14T10:18:55;16.20;99.90
15717;DHT22;7960;50.908;4.204;2023-05-14T10:21:28;16.20;99.90
15717;DHT22;7960;50.908;4.204;2023-05-14T10:23:56;16.30;99.90
15717;DHT22;7960;50.908;4.204;2023-05-14T10:26:23;16.80;99.90
15717;DHT22;7960;50.908;4.204;2023-05-14T10:28:52;17.00;99.90
15717;DHT22;7960;50.908;4.204;2023-05-14T10:31:22;17.20;99.90
15717;DHT22;7960;50.908;4.204;2023-05-14T10:33:49;17.40;99.90
15717;DHT22;7960;50.908;4.204;2023-05-14T10:36:17;17.40;99.90
15717;DHT22;7960;50.908;4.204;2023-05-14T10:38:44;17.30;99.90
15717;DHT22;7960;50.908;4.204;2023-05-14T10:41:12;17.40;99.90
15717;DHT22;7960;50.908;4.204;2023-05-14T10:43:40;17.50;99.90
15717;DHT22;7960;50.908;4.204;2023-05-14T10:46:11;17.60;99.90
15717;DHT22;7960;50.908;4.204;2023-05-14T10:48:40;17.90;99.90
15717;DHT22;7960;50.908;4.204;2023-05-14T10:51:08;18.10;99.90
15717;DHT22;7960;50.908;4.204;2023-05-14T10:53:37;18.00;99.90
15717;DHT22;7960;50.908;4.204;2023-05-14T10:56:08;18.10;99.90
15717;DHT22;7960;50.908;4.204;2023-05-14T10:58:37;18.40;99.90
15717;DHT22;7960;50.908;4.204;2023-05-14T11:01:05;18.50;99.90
15717;DHT22;7960;50.908;4.204;2023-05-14T11:03:38;18.60;99.90
15717;DHT22;7960;50.908;4.204;2023-05-14T11:06:06;18.70;99.90
15717;DHT22;7960;50.908;4.204;2023-05-14T11:08:34;18.70;99.90
15717;DHT22;7960;50.908;4.204;2023-05-14T11:11:01;18.60;99.90
15717;DHT22;7960;50.908;4.204;2023-05-14T11:13:28;18.40;99.90
15717;DHT22;7960;50.908;4.204;2023-05-14T11:15:55;18.20;99.90
15717;DHT22;7960;50.908;4.204;2023-05-14T11:18:26;18.50;99.90
15717;DHT22;7960;50.908;4.204;2023-05-14T11:20:57;18.80;99.90
15717;DHT22;7960;50.908;4.204;2023-05-14T11:23:24;18.90;99.90
15717;DHT22;7960;50.908;4.204;2023-05-14T11:25:52;18.70;99.90
15717;DHT22;7960;50.908;4.204;2023-05-14T11:28:20;18.90;99.90
15717;DHT22;7960;50.908;4.204;2023-05-14T11:30:47;19.10;99.90
15717;DHT22;7960;50.908;4.204;2023-05-14T11:33:15;19.10;99.90
15717;DHT22;7960;50.908;4.204;2023-05-14T11:35:42;19.20;99.90
15717;DHT22;7960;50.908;4.204;2023-05-14T11:38:14;19.30;99.90
15717;DHT22;7960;50.908;4.204;2023-05-14T11:40:42;19.40;99.90
15717;DHT22;7960;50.908;4.204;2023-05-14T11:43:10;19.60;99.90
15717;DHT22;7960;50.908;4.204;2023-05-14T11:45:36;19.70;99.90
15717;DHT22;7960;50.908;4.204;2023-05-14T11:48:11;19.90;99.90
15717;DHT22;7960;50.908;4.204;2023-05-14T11:50:44;20.10;99.90
15717;DHT22;7960;50.908;4.204;2023-05-14T11:53:17;20.10;99.90
15717;DHT22;7960;50.908;4.204;2023-05-14T11:55:46;20.20;99.90
15717;DHT22;7960;50.908;4.204;2023-05-14T11:58:13;20.30;99.90
15717;DHT22;7960;50.908;4.204;2023-05-14T12:00:43;20.00;99.90
15717;DHT22;7960;50.908;4.204;2023-05-14T12:03:10;19.90;99.90
15717;DHT22;7960;50.908;4.204;2023-05-14T12:05:38;20.20;99.90
15717;DHT22;7960;50.908;4.204;2023-05-14T12:08:20;19.90;99.90
15717;DHT22;7960;50.908;4.204;2023-05-14T12:10:46;20.20;99.90
15717;DHT22;7960;50.908;4.204;2023-05-14T12:13:14;20.40;99.90
15717;DHT22;7960;50.908;4.204;2023-05-14T12:15:44;20.20;99.90
15717;DHT22;7960;50.908;4.204;2023-05-14T12:18:11;20.30;99.90
15717;DHT22;7960;50.908;4.204;2023-05-14T12:20:39;20.30;99.90
15717;DHT22;7960;50.908;4.204;2023-05-14T12:23:11;20.00;99.90
15717;DHT22;7960;50.908;4.204;2023-05-14T12:25:41;20.20;99.90
15717;DHT22;7960;50.908;4.204;2023-05-14T12:28:15;20.40;99.90
15717;DHT22;7960;50.908;4.204;2023-05-14T12:30:42;20.50;99.90
15717;DHT22;7960;50.908;4.204;2023-05-14T12:33:09;20.10;99.90
15717;DHT22;7960;50.908;4.204;2023-05-14T12:35:36;20.70;99.90
15717;DHT22;7960;50.908;4.204;2023-05-14T12:38:03;20.90;99.90
15717;DHT22;7960;50.908;4.204;2023-05-14T12:40:30;21.30;99.90
15717;DHT22;7960;50.908;4.204;2023-05-14T12:42:58;21.70;99.90
15717;DHT22;7960;50.908;4.204;2023-05-14T12:45:25;22.20;99.20
15717;DHT22;7960;50.908;4.204;2023-05-14T12:47:52;22.30;99.00
15717;DHT22;7960;50.908;4.204;2023-05-14T12:50:19;22.20;97.90
15717;DHT22;7960;50.908;4.204;2023-05-14T12:52:46;22.40;98.50
15717;DHT22;7960;50.908;4.204;2023-05-14T12:55:13;22.50;97.70
15717;DHT22;7960;50.908;4.204;2023-05-14T12:57:40;22.10;96.90
15717;DHT22;7960;50.908;4.204;2023-05-14T13:00:09;21.40;97.10
15717;DHT22;7960;50.908;4.204;2023-05-14T13:02:37;22.00;98.00
15717;DHT22;7960;50.908;4.204;2023-05-14T13:05:04;21.90;97.90
15717;DHT22;7960;50.908;4.204;2023-05-14T13:07:31;22.30;98.00
15717;DHT22;7960;50.908;4.204;2023-05-14T13:09:58;22.10;97.70
15717;DHT22;7960;50.908;4.204;2023-05-14T13:12:25;22.40;97.60
15717;DHT22;7960;50.908;4.204;2023-05-14T13:14:52;22.50;97.10
15717;DHT22;7960;50.908;4.204;2023-05-14T13:17:20;21.90;97.20
15717;DHT22;7960;50.908;4.204;2023-05-14T13:19:47;22.00;97.20
15717;DHT22;7960;50.908;4.204;2023-05-14T13:22:14;22.20;97.70
15717;DHT22;7960;50.908;4.204;2023-05-14T13:24:43;22.40;96.70
15717;DHT22;7960;50.908;4.204;2023-05-14T13:27:10;22.70;96.50
15717;DHT22;7960;50.908;4.204;2023-05-14T13:29:37;22.90;96.60
15717;DHT22;7960;50.908;4.204;2023-05-14T13:32:04;23.30;95.30
15717;DHT22;7960;50.908;4.204;2023-05-14T13:34:33;22.40;94.70
15717;DHT22;7960;50.908;4.204;2023-05-14T13:37:00;22.90;95.40
15717;DHT22;7960;50.908;4.204;2023-05-14T13:39:27;23.20;94.70
15717;DHT22;7960;50.908;4.204;2023-05-14T13:41:54;23.70;93.90
15717;DHT22;7960;50.908;4.204;2023-05-14T13:44:21;23.30;93.30
15717;DHT22;7960;50.908;4.204;2023-05-14T13:46:48;23.60;94.00
15717;DHT22;7960;50.908;4.204;2023-05-14T13:49:15;23.80;92.90
15717;DHT22;7960;50.908;4.204;2023-05-14T13:51:43;23.10;93.40
15717;DHT22;7960;50.908;4.204;2023-05-14T13:54:10;23.30;94.00
15717;DHT22;7960;50.908;4.204;2023-05-14T13:56:37;23.80;93.50
15717;DHT22;7960;50.908;4.204;2023-05-14T13:59:04;23.90;93.20
15717;DHT22;7960;50.908;4.204;2023-05-14T14:01:31;24.10;92.30
15717;DHT22;7960;50.908;4.204;2023-05-14T14:03:58;24.40;91.80
15717;DHT22;7960;50.908;4.204;2023-05-14T14:06:25;24.80;91.20
15717;DHT22;7960;50.908;4.204;2023-05-14T14:08:54;24.10;90.40
15717;DHT22;7960;50.908;4.204;2023-05-14T14:11:21;24.20;91.40
15717;DHT22;7960;50.908;4.204;2023-05-14T14:13:47;24.20;90.90
15717;DHT22;7960;50.908;4.204;2023-05-14T14:16:15;24.20;90.90
15717;DHT22;7960;50.908;4.204;2023-05-14T14:18:41;23.30;91.20
15717;DHT22;7960;50.908;4.204;2023-05-14T14:21:08;23.60;91.60
15717;DHT22;7960;50.908;4.204;2023-05-14T14:23:35;23.60;91.50
15717;DHT22;7960;50.908;4.204;2023-05-14T14:26:04;23.90;91.30
15717;DHT22;7960;50.908;4.204;2023-05-14T14:28:31;23.90;90.40
15717;DHT22;7960;50.908;4.204;2023-05-14T14:30:57;24.10;90.60
15717;DHT22;7960;50.908;4.204;2023-05-14T14:33:24;24.40;90.90
15717;DHT22;7960;50.908;4.204;2023-05-14T14:35:51;23.20;90.80
15717;DHT22;7960;50.908;4.204;2023-05-14T14:38:18;23.70;91.40
15717;DHT22;7960;50.908;4.204;2023-05-14T14:40:45;24.00;91.30
15717;DHT22;7960;50.908;4.204;2023-05-14T14:43:14;23.50;91.10
15717;DHT22;7960;50.908;4.204;2023-05-14T14:45:41;23.70;90.90
15717;DHT22;7960;50.908;4.204;2023-05-14T14:48:22;23.70;90.40
15717;DHT22;7960;50.908;4.204;2023-05-14T14:50:50;23.50;90.70
15717;DHT22;7960;50.908;4.204;2023-05-14T14:53:17;23.50;90.50
15717;DHT22;7960;50.908;4.204;2023-05-14T14:55:44;23.60;90.70
15717;DHT22;7960;50.908;4.204;2023-05-14T14:58:13;23.30;90.90
15717;DHT22;7960;50.908;4.204;2023-05-14T15:00:40;23.50;90.50
15717;DHT22;7960;50.908;4.204;2023-05-14T15:03:07;23.30;90.60
15717;DHT22;7960;50.908;4.204;2023-05-14T15:05:35;23.40;90.60
15717;DHT22;7960;50.908;4.204;2023-05-14T15:08:02;23.20;91.10
15717;DHT22;7960;50.908;4.204;2023-05-14T15:10:29;22.80;91.90
15717;DHT22;7960;50.908;4.204;2023-05-14T15:12:57;23.10;92.20
15717;DHT22;7960;50.908;4.204;2023-05-14T15:15:25;23.20;92.20
15717;DHT22;7960;50.908;4.204;2023-05-14T15:17:52;23.00;92.70
15717;DHT22;7960;50.908;4.204;2023-05-14T15:20:19;22.90;93.50
15717;DHT22;7960;50.908;4.204;2023-05-14T15:22:46;22.70;93.50
15717;DHT22;7960;50.908;4.204;2023-05-14T15:25:14;22.60;94.00
15717;DHT22;7960;50.908;4.204;2023-05-14T15:27:40;22.30;94.30
15717;DHT22;7960;50.908;4.204;2023-05-14T15:30:08;21.90;94.90
15717;DHT22;7960;50.908;4.204;2023-05-14T15:32:36;21.90;94.70
15717;DHT22;7960;50.908;4.204;2023-05-14T15:35:04;21.70;95.10
15717;DHT22;7960;50.908;4.204;2023-05-14T15:37:35;21.90;95.10
15717;DHT22;7960;50.908;4.204;2023-05-14T15:40:03;21.60;95.60
15717;DHT22;7960;50.908;4.204;2023-05-14T15:42:31;21.70;95.80
15717;DHT22;7960;50.908;4.204;2023-05-14T15:44:58;21.80;95.50
15717;DHT22;7960;50.908;4.204;2023-05-14T15:47:25;21.70;95.30
15717;DHT22;7960;50.908;4.204;2023-05-14T15:49:53;21.90;95.10